Time;durP1;ratioP1;P1;durP2;ratioP2;P2;SDS_P1;SDS_P2;PMS_P1;PMS_P2;Temp;Humidity;BMP_temperature;BMP_pressure;BME280_temperature;BME280_humidity;BME280_pressure;Samples;Min_cycle;Max_cycle;Signal;HPM_P1;HPM_P2
2023/05/16 00:00:18;;;;;;;30.50;1.50;;;15.80;51.30;;;;;;5010870;28;20542;-70
2023/05/16 00:02:44;;;;;;;32.03;2.10;;;15.80;51.60;;;;;;5008886;28;20254;-70
2023/05/16 00:05:13;;;;;;;25.00;1.83;;;15.70;51.60;;;;;;5010367;28;20547;-70
2023/05/16 00:07:41;;;;;;;30.70;1.60;;;15.70;51.60;;;;;;5011081;28;20174;-70
2023/05/16 00:10:07;;;;;;;29.67;1.50;;;15.80;50.90;;;;;;5011120;28;20463;-70
2023/05/16 00:12:35;;;;;;;29.40;1.60;;;15.80;51.20;;;;;;5006514;28;20479;-70
2023/05/16 00:15:01;;;;;;;29.93;1.63;;;15.70;51.90;;;;;;5010691;28;20552;-70
2023/05/16 00:17:27;;;;;;;29.17;1.50;;;15.70;51.80;;;;;;5028618;28;20544;-70
2023/05/16 00:19:57;;;;;;;29.10;1.30;;;15.60;51.50;;;;;;5030818;28;20163;-70
2023/05/16 00:22:23;;;;;;;29.70;1.83;;;15.70;51.30;;;;;;5022992;28;20437;-70
2023/05/16 00:24:49;;;;;;;28.40;1.37;;;15.60;51.90;;;;;;5011489;28;20452;-70
2023/05/16 00:27:14;;;;;;;28.80;1.40;;;15.60;52.30;;;;;;5030762;28;20904;-69
2023/05/16 00:29:40;;;;;;;29.37;1.57;;;15.60;51.10;;;;;;5034457;28;20189;-69
2023/05/16 00:32:07;;;;;;;31.00;1.63;;;15.50;51.50;;;;;;5019366;28;20258;-69
2023/05/16 00:34:33;;;;;;;30.73;1.50;;;15.30;52.50;;;;;;5011775;28;20213;-70
2023/05/16 00:36:59;;;;;;;30.47;1.50;;;15.50;52.10;;;;;;5013747;28;20460;-70
2023/05/16 00:39:24;;;;;;;31.20;1.60;;;15.60;51.30;;;;;;5014243;28;20435;-70
2023/05/16 00:41:50;;;;;;;31.67;1.57;;;15.60;51.20;;;;;;5022062;28;20194;-70
2023/05/16 00:44:16;;;;;;;31.60;1.73;;;15.50;51.50;;;;;;5011399;28;20186;-70
2023/05/16 00:46:42;;;;;;;22.00;1.60;;;15.50;51.60;;;;;;5005976;28;20409;-70
2023/05/16 00:49:08;;;;;;;30.40;1.90;;;15.50;51.10;;;;;;5014066;28;20589;-70
2023/05/16 00:51:36;;;;;;;30.30;1.60;;;15.50;51.50;;;;;;5014284;28;20169;-70
2023/05/16 00:54:02;;;;;;;30.10;1.57;;;15.60;50.80;;;;;;5012778;28;20796;-70
2023/05/16 00:56:28;;;;;;;29.97;1.63;;;15.60;51.50;;;;;;5012876;28;20842;-70
2023/05/16 00:58:53;;;;;;;30.57;1.63;;;15.60;51.30;;;;;;5022017;28;20417;-70
2023/05/16 01:01:21;;;;;;;27.93;1.70;;;15.60;51.50;;;;;;5014038;28;20254;-70
2023/05/16 01:03:48;;;;;;;28.37;1.60;;;15.50;51.30;;;;;;5012884;28;20693;-70
2023/05/16 01:06:13;;;;;;;28.90;1.40;;;15.60;50.80;;;;;;5012788;28;20452;-70
2023/05/16 01:08:39;;;;;;;14.17;1.40;;;15.60;51.40;;;;;;5013294;28;20993;-70
2023/05/16 01:11:34;;;;;;;23.73;1.50;;;15.60;51.60;;;;;;5012613;28;20197;-70
2023/05/16 01:14:24;;;;;;;29.20;1.63;;;15.60;51.70;;;;;;5002334;28;20194;-70
2023/05/16 01:17:07;;;;;;;15.83;1.60;;;15.50;51.70;;;;;;5026376;28;20546;-74
2023/05/16 01:19:42;;;;;;;28.33;1.60;;;15.70;51.20;;;;;;5010450;28;20827;-73
2023/05/16 01:22:27;;;;;;;34.00;1.60;;;15.70;50.80;;;;;;5009084;28;20487;-70
2023/05/16 01:25:12;;;;;;;33.63;1.50;;;15.80;51.60;;;;;;5009618;28;20485;-70
2023/05/16 01:27:38;;;;;;;32.57;1.53;;;15.70;51.30;;;;;;5013094;28;20419;-70
2023/05/16 01:30:17;;;;;;;33.90;1.80;;;15.70;51.40;;;;;;5013412;28;20408;-70
2023/05/16 01:32:43;;;;;;;6.57;1.57;;;15.70;51.20;;;;;;5008651;28;20437;-70
2023/05/16 01:35:12;;;;;;;30.87;1.63;;;15.80;51.70;;;;;;5010872;28;20454;-70
2023/05/16 01:37:42;;;;;;;32.53;1.60;;;15.70;52.30;;;;;;5012998;28;20495;-70
2023/05/16 01:40:14;;;;;;;31.27;1.40;;;15.60;52.30;;;;;;5013396;28;20412;-70
2023/05/16 01:42:44;;;;;;;31.97;1.97;;;15.60;52.30;;;;;;5012347;28;20932;-71
2023/05/16 01:45:30;;;;;;;31.50;1.67;;;15.70;52.50;;;;;;5011863;28;20466;-70
2023/05/16 01:48:22;;;;;;;32.00;1.60;;;15.70;52.20;;;;;;4993753;28;20414;-70
2023/05/16 01:50:55;;;;;;;34.90;2.33;;;15.60;52.60;;;;;;5005705;28;20438;-70
2023/05/16 01:53:35;;;;;;;30.50;1.57;;;15.70;52.80;;;;;;5011320;28;20426;-70
2023/05/16 01:56:01;;;;;;;27.17;1.70;;;15.70;52.60;;;;;;5012347;28;20443;-70
2023/05/16 01:58:30;;;;;;;38.83;1.87;;;15.80;52.50;;;;;;5007663;28;20554;-70
2023/05/16 02:01:02;;;;;;;36.90;1.70;;;15.70;52.70;;;;;;5003610;28;20470;-69
2023/05/16 02:03:33;;;;;;;36.70;1.47;;;15.70;52.60;;;;;;5011866;28;20498;-70
2023/05/16 02:05:59;;;;;;;32.67;1.60;;;15.80;52.00;;;;;;4995026;28;20448;-69
2023/05/16 02:08:25;;;;;;;36.80;1.70;;;15.70;52.00;;;;;;5009599;28;20440;-69
2023/05/16 02:10:51;;;;;;;37.30;2.00;;;15.70;52.40;;;;;;5012666;28;20187;-69
2023/05/16 02:13:17;;;;;;;37.17;1.60;;;15.80;51.10;;;;;;5009878;28;21067;-72
2023/05/16 02:15:42;;;;;;;22.27;1.60;;;15.80;51.30;;;;;;5018147;28;20550;-69
2023/05/16 02:18:08;;;;;;;38.17;1.80;;;15.80;51.60;;;;;;5013885;28;20218;-70
2023/05/16 02:20:34;;;;;;;38.10;1.50;;;15.80;51.80;;;;;;5012298;28;20646;-70
2023/05/16 02:23:02;;;;;;;37.47;1.40;;;15.80;51.30;;;;;;5011862;28;20178;-70
2023/05/16 02:25:27;;;;;;;37.10;1.50;;;15.90;51.00;;;;;;5012491;28;20441;-72
2023/05/16 02:27:53;;;;;;;37.40;1.40;;;15.90;50.70;;;;;;5012277;28;20412;-69
2023/05/16 02:30:19;;;;;;;38.50;2.20;;;15.90;51.60;;;;;;4994122;28;20956;-69
2023/05/16 02:32:44;;;;;;;37.53;2.33;;;15.90;51.30;;;;;;5009349;28;20186;-72
2023/05/16 02:35:10;;;;;;;38.10;1.90;;;15.90;51.60;;;;;;4993980;28;20209;-70
2023/05/16 02:37:37;;;;;;;35.30;1.50;;;16.00;50.90;;;;;;5012139;28;20662;-69
2023/05/16 02:40:04;;;;;;;35.60;1.83;;;16.00;51.20;;;;;;4992738;28;20439;-69
2023/05/16 02:42:31;;;;;;;34.80;1.43;;;16.00;51.70;;;;;;5011756;28;20784;-70
2023/05/16 02:44:56;;;;;;;35.63;1.67;;;16.00;51.70;;;;;;5021358;28;20826;-69
2023/05/16 02:47:22;;;;;;;37.00;1.63;;;15.90;52.20;;;;;;5014298;28;20430;-72
2023/05/16 02:49:48;;;;;;;38.00;2.10;;;16.00;52.60;;;;;;5009310;28;20191;-69
2023/05/16 02:52:13;;;;;;;25.87;1.63;;;16.00;51.90;;;;;;5006542;28;20245;-69
2023/05/16 02:54:39;;;;;;;37.47;1.53;;;16.00;52.10;;;;;;5010932;28;20288;-69
2023/05/16 02:57:05;;;;;;;38.27;1.80;;;16.10;51.80;;;;;;5010543;28;20246;-69
2023/05/16 02:59:30;;;;;;;38.07;1.40;;;16.10;51.50;;;;;;5011878;28;20641;-69
2023/05/16 03:01:56;;;;;;;37.10;1.60;;;16.10;51.70;;;;;;5008257;28;20277;-69
2023/05/16 03:04:22;;;;;;;33.40;1.70;;;16.10;51.90;;;;;;5007255;28;20192;-69
2023/05/16 03:06:49;;;;;;;36.60;1.97;;;16.20;51.30;;;;;;5022071;28;20265;-69
2023/05/16 03:09:15;;;;;;;36.90;1.83;;;16.20;51.90;;;;;;4993340;28;20433;-68
2023/05/16 03:11:41;;;;;;;35.70;1.60;;;16.20;51.80;;;;;;5017917;28;20437;-68
2023/05/16 03:14:07;;;;;;;37.13;1.77;;;16.20;51.40;;;;;;5010858;28;20431;-68
2023/05/16 03:16:33;;;;;;;36.73;1.50;;;16.20;50.60;;;;;;5009192;28;20214;-69
2023/05/16 03:18:58;;;;;;;36.50;1.80;;;16.10;51.60;;;;;;5010892;28;20188;-69
2023/05/16 03:21:24;;;;;;;2.33;1.50;;;16.20;51.60;;;;;;5013164;28;20220;-69
2023/05/16 03:23:50;;;;;;;37.30;2.20;;;16.20;51.10;;;;;;5017062;28;20182;-68
2023/05/16 03:26:15;;;;;;;37.27;1.50;;;16.20;50.50;;;;;;5008820;28;20868;-69
2023/05/16 03:28:41;;;;;;;37.83;1.70;;;15.70;50.50;;;;;;5009239;28;20220;-68
2023/05/16 03:31:07;;;;;;;37.83;1.77;;;15.50;53.70;;;;;;5010018;28;20187;-69
2023/05/16 03:33:32;;;;;;;38.13;1.60;;;15.70;52.80;;;;;;5009877;28;20195;-68
2023/05/16 03:35:58;;;;;;;36.10;2.10;;;15.80;53.80;;;;;;5008605;28;20209;-69
2023/05/16 03:38:23;;;;;;;36.77;2.30;;;16.00;53.00;;;;;;5009163;28;20298;-69
2023/05/16 03:40:50;;;;;;;36.30;2.40;;;16.20;51.50;;;;;;5023153;28;20185;-68
2023/05/16 03:43:15;;;;;;;36.17;1.70;;;16.20;52.60;;;;;;5029661;28;20170;-68
2023/05/16 03:45:42;;;;;;;36.50;2.00;;;16.30;52.10;;;;;;5022515;28;20460;-69
2023/05/16 03:48:08;;;;;;;36.60;2.10;;;16.30;51.10;;;;;;5006062;28;20198;-68
2023/05/16 03:50:36;;;;;;;36.70;1.70;;;16.00;51.30;;;;;;5010388;28;20472;-69
2023/05/16 03:53:02;;;;;;;37.00;1.90;;;16.10;52.60;;;;;;4992159;28;20940;-68
2023/05/16 03:55:29;;;;;;;24.03;1.40;;;16.10;51.50;;;;;;5010279;28;20514;-69
2023/05/16 03:57:55;;;;;;;36.87;2.30;;;16.10;51.80;;;;;;5019310;28;20475;-68
2023/05/16 04:00:21;;;;;;;37.10;1.80;;;17.30;53.30;;;;;;5012812;28;20442;-68
2023/05/16 04:02:46;;;;;;;37.93;2.03;;;13.50;49.40;;;;;;4992425;28;20191;-68
2023/05/16 04:05:12;;;;;;;40.57;3.20;;;15.90;52.00;;;;;;5009695;28;20199;-68
2023/05/16 04:07:39;;;;;;;37.93;1.73;;;16.10;51.90;;;;;;5014634;28;20184;-69
2023/05/16 04:10:05;;;;;;;31.63;1.63;;;16.20;52.30;;;;;;5016839;28;20445;-69
2023/05/16 04:12:31;;;;;;;38.33;2.70;;;16.10;51.40;;;;;;5006137;28;20456;-69
2023/05/16 04:14:57;;;;;;;39.10;2.57;;;16.20;51.30;;;;;;4976618;28;1067312;-68
2023/05/16 04:17:22;;;;;;;38.50;2.50;;;16.10;50.00;;;;;;5012465;28;20222;-68
2023/05/16 04:19:48;;;;;;;40.30;3.23;;;15.50;52.60;;;;;;5012574;28;20199;-68
2023/05/16 04:22:13;;;;;;;38.00;2.43;;;15.40;54.60;;;;;;5014419;28;20196;-69
2023/05/16 04:24:39;;;;;;;38.43;2.30;;;15.50;54.40;;;;;;5013958;28;20258;-68
2023/05/16 04:27:09;;;;;;;22.67;2.63;;;15.40;55.10;;;;;;5014715;28;20192;-71
2023/05/16 04:29:35;;;;;;;38.10;2.87;;;15.30;55.10;;;;;;5017715;28;20698;-68
2023/05/16 04:32:01;;;;;;;37.00;2.23;;;15.60;55.20;;;;;;5013005;28;20432;-69
2023/05/16 04:34:27;;;;;;;39.17;2.87;;;15.50;55.00;;;;;;5009082;28;20443;-69
2023/05/16 04:36:53;;;;;;;37.53;2.67;;;15.50;54.90;;;;;;5013669;28;20462;-68
2023/05/16 04:39:19;;;;;;;37.43;3.20;;;15.90;54.10;;;;;;5007140;28;20235;-70
2023/05/16 04:41:45;;;;;;;37.10;2.07;;;15.80;53.00;;;;;;5012426;28;20832;-69
2023/05/16 04:44:10;;;;;;;37.90;2.47;;;15.60;52.00;;;;;;5013383;28;20180;-70
2023/05/16 04:46:36;;;;;;;37.33;2.27;;;15.40;53.60;;;;;;5013992;28;20432;-69
2023/05/16 04:49:01;;;;;;;36.47;2.17;;;15.80;54.00;;;;;;5014440;28;20184;-69
2023/05/16 04:51:27;;;;;;;39.50;2.60;;;15.80;53.70;;;;;;5022684;28;20670;-69
2023/05/16 04:53:53;;;;;;;9.33;2.10;;;15.70;52.90;;;;;;5012739;28;20199;-70
2023/05/16 04:56:19;;;;;;;37.83;2.73;;;15.20;54.80;;;;;;4979660;28;20224;-69
2023/05/16 04:58:45;;;;;;;7.13;2.03;;;15.20;55.40;;;;;;4990929;28;20439;-69
2023/05/16 05:01:11;;;;;;;37.40;2.37;;;14.80;57.50;;;;;;5020228;28;20186;-69
2023/05/16 05:03:36;;;;;;;38.57;2.87;;;14.90;59.50;;;;;;5012062;28;20497;-69
2023/05/16 05:06:03;;;;;;;18.80;2.13;;;14.80;58.90;;;;;;5034877;23;20227;-70
2023/05/16 05:08:28;;;;;;;34.70;1.80;;;14.80;56.50;;;;;;5036545;28;20550;-70
2023/05/16 05:10:57;;;;;;;17.73;2.30;;;15.10;57.00;;;;;;5045627;28;20411;-70
2023/05/16 05:13:23;;;;;;;36.80;2.57;;;15.10;52.80;;;;;;5037980;28;20180;-70
2023/05/16 05:15:50;;;;;;;37.30;2.63;;;14.60;56.60;;;;;;5023133;28;20523;-69
2023/05/16 05:18:16;;;;;;;22.77;1.83;;;14.60;57.90;;;;;;5012538;28;20213;-70
2023/05/16 05:20:42;;;;;;;38.27;2.30;;;14.90;58.30;;;;;;5013646;28;20410;-70
2023/05/16 05:23:08;;;;;;;17.47;2.20;;;15.10;55.30;;;;;;5010269;28;20188;-70
2023/05/16 05:25:35;;;;;;;36.80;2.10;;;15.10;55.30;;;;;;5019209;28;20297;-70
2023/05/16 05:28:01;;;;;;;14.03;2.57;;;14.80;56.90;;;;;;5011820;28;20474;-70
2023/05/16 05:30:26;;;;;;;43.23;2.73;;;14.70;58.20;;;;;;5013888;28;20459;-70
2023/05/16 05:32:53;;;;;;;36.90;2.33;;;14.70;57.80;;;;;;5012192;28;20791;-70
2023/05/16 05:35:19;;;;;;;35.10;1.97;;;14.90;56.50;;;;;;5013243;28;20184;-70
2023/05/16 05:37:45;;;;;;;37.23;2.20;;;15.00;56.00;;;;;;5025483;28;20486;-70
2023/05/16 05:40:11;;;;;;;33.03;2.43;;;15.50;55.60;;;;;;5033667;28;20441;-70
2023/05/16 05:42:36;;;;;;;39.07;3.30;;;15.50;53.30;;;;;;5021086;28;20549;-70
2023/05/16 05:45:02;;;;;;;37.73;2.13;;;15.40;52.00;;;;;;5021125;28;20192;-70
2023/05/16 05:47:28;;;;;;;37.60;2.17;;;14.80;56.80;;;;;;5011549;28;20200;-70
2023/05/16 05:49:54;;;;;;;38.03;2.60;;;14.80;56.50;;;;;;5013207;28;20524;-70
2023/05/16 05:52:20;;;;;;;37.57;3.53;;;14.40;59.40;;;;;;5009933;28;20255;-70
2023/05/16 05:54:47;;;;;;;36.93;2.30;;;14.50;57.90;;;;;;5016034;28;20172;-70
2023/05/16 05:57:12;;;;;;;37.10;3.37;;;14.70;58.00;;;;;;5015372;28;20997;-70
2023/05/16 05:59:38;;;;;;;25.47;2.20;;;14.30;59.10;;;;;;5013397;28;20489;-70
2023/05/16 06:02:06;;;;;;;41.00;3.50;;;14.80;58.20;;;;;;5012155;28;20180;-70
2023/05/16 06:04:32;;;;;;;37.07;2.53;;;15.30;54.30;;;;;;5020728;28;20670;-70
2023/05/16 06:06:57;;;;;;;36.90;2.40;;;15.60;53.20;;;;;;5013168;28;20450;-70
2023/05/16 06:09:23;;;;;;;38.30;2.60;;;15.60;52.80;;;;;;5011325;28;20734;-77
2023/05/16 06:11:49;;;;;;;37.03;2.23;;;15.30;54.00;;;;;;5012026;28;20187;-79
2023/05/16 06:14:15;;;;;;;15.63;2.50;;;14.80;56.00;;;;;;5005265;28;20184;-79
2023/05/16 06:16:40;;;;;;;38.67;3.23;;;14.80;56.40;;;;;;5021240;28;20211;-79
2023/05/16 06:19:07;;;;;;;33.50;2.40;;;14.90;58.30;;;;;;5023792;28;20556;-81
2023/05/16 06:21:32;;;;;;;35.90;3.13;;;15.90;57.30;;;;;;5015957;28;20251;-79
2023/05/16 06:23:58;;;;;;;32.43;2.30;;;15.30;56.20;;;;;;4996365;28;20422;-79
2023/05/16 06:26:23;;;;;;;33.40;2.47;;;15.70;53.00;;;;;;5013485;28;20676;-79
2023/05/16 06:28:49;;;;;;;35.80;3.40;;;15.10;54.90;;;;;;5014360;28;20180;-80
2023/05/16 06:31:15;;;;;;;18.17;2.30;;;15.20;56.80;;;;;;5010607;28;20188;-79
2023/05/16 06:33:40;;;;;;;32.00;2.33;;;15.70;55.10;;;;;;5012813;28;20192;-79
2023/05/16 06:36:06;;;;;;;34.90;3.00;;;15.80;55.00;;;;;;5011954;28;20215;-79
2023/05/16 06:38:32;;;;;;;34.27;2.67;;;15.50;54.50;;;;;;5010869;28;20355;-79
2023/05/16 06:40:57;;;;;;;30.57;2.67;;;15.50;55.00;;;;;;5014537;28;20706;-81
2023/05/16 06:43:23;;;;;;;37.03;3.57;;;15.40;53.60;;;;;;5013365;28;20187;-77
2023/05/16 06:45:49;;;;;;;34.70;2.53;;;15.10;55.90;;;;;;5011625;28;20698;-73
2023/05/16 06:48:16;;;;;;;34.13;2.70;;;15.20;57.60;;;;;;5010439;28;20667;-72
2023/05/16 06:50:42;;;;;;;34.93;2.70;;;15.20;59.10;;;;;;5006124;28;20180;-71
2023/05/16 06:53:08;;;;;;;24.43;2.43;;;15.20;59.30;;;;;;5008372;28;20442;-68
2023/05/16 06:55:33;;;;;;;33.03;2.03;;;15.80;56.70;;;;;;5011106;28;20287;-70
2023/05/16 06:57:59;;;;;;;34.33;2.00;;;16.30;54.40;;;;;;5011256;28;20289;-70
2023/05/16 07:00:25;;;;;;;37.03;3.17;;;16.70;52.90;;;;;;5011724;28;20252;-71
2023/05/16 07:02:51;;;;;;;33.93;2.13;;;16.60;50.80;;;;;;5006476;28;20181;-68
2023/05/16 07:05:17;;;;;;;35.67;2.63;;;16.50;50.80;;;;;;5009466;28;20435;-68
2023/05/16 07:07:42;;;;;;;35.13;2.83;;;16.60;51.80;;;;;;5009982;28;20447;-68
2023/05/16 07:10:08;;;;;;;36.00;2.53;;;16.80;50.60;;;;;;5018593;28;20212;-68
2023/05/16 07:12:37;;;;;;;4.57;2.30;;;17.00;48.60;;;;;;5022763;28;20172;-68
2023/05/16 07:15:03;;;;;;;30.17;2.40;;;16.80;49.00;;;;;;5031410;28;20450;-68
2023/05/16 07:17:28;;;;;;;33.17;2.70;;;16.40;50.40;;;;;;5030978;28;20978;-67
2023/05/16 07:19:54;;;;;;;30.03;2.50;;;16.70;50.20;;;;;;5019503;28;20459;-67
2023/05/16 07:22:19;;;;;;;29.17;2.13;;;17.00;49.50;;;;;;5019700;28;20542;-68
2023/05/16 07:24:45;;;;;;;30.47;2.30;;;17.20;48.80;;;;;;5030315;28;20192;-68
2023/05/16 07:27:11;;;;;;;12.23;2.67;;;17.10;48.60;;;;;;5031255;28;20188;-76
2023/05/16 07:29:38;;;;;;;25.37;2.07;;;17.10;50.30;;;;;;5025185;28;20188;-68
2023/05/16 07:32:04;;;;;;;27.20;2.30;;;16.80;47.70;;;;;;5017969;28;20184;-68
2023/05/16 07:34:30;;;;;;;27.23;2.57;;;16.80;49.80;;;;;;5028678;28;20454;-67
2023/05/16 07:36:56;;;;;;;27.70;2.77;;;16.70;48.20;;;;;;5026463;28;20459;-68
2023/05/16 07:39:21;;;;;;;29.13;3.60;;;16.60;48.40;;;;;;5009471;28;20334;-68
2023/05/16 07:41:47;;;;;;;26.30;2.20;;;16.70;50.60;;;;;;5017865;28;20185;-68
2023/05/16 07:44:12;;;;;;;26.73;2.57;;;16.80;50.20;;;;;;5012816;28;20173;-68
2023/05/16 07:46:38;;;;;;;26.60;2.00;;;16.70;47.20;;;;;;5009668;28;20193;-68
2023/05/16 07:49:04;;;;;;;29.50;3.17;;;16.50;48.10;;;;;;5009218;28;20180;-68
2023/05/16 07:51:30;;;;;;;27.90;2.63;;;16.60;50.80;;;;;;5006425;28;20264;-68
2023/05/16 07:53:56;;;;;;;27.83;2.60;;;16.60;48.30;;;;;;5020593;28;20526;-68
2023/05/16 07:56:22;;;;;;;29.13;2.87;;;16.80;48.70;;;;;;5011396;28;20431;-68
2023/05/16 07:58:48;;;;;;;28.90;2.07;;;16.90;48.20;;;;;;5011582;28;20207;-68
2023/05/16 08:01:13;;;;;;;30.43;3.20;;;16.90;48.10;;;;;;5011433;28;20829;-68
2023/05/16 08:03:39;;;;;;;33.10;2.60;;;16.90;48.70;;;;;;5008952;28;20577;-68
2023/05/16 08:06:05;;;;;;;9.13;2.00;;;16.60;48.00;;;;;;5006298;28;20213;-68
2023/05/16 08:08:30;;;;;;;19.37;1.63;;;16.20;47.70;;;;;;4988652;28;20546;-67
2023/05/16 08:10:56;;;;;;;27.33;2.93;;;16.40;50.10;;;;;;5006915;28;20188;-68
2023/05/16 08:13:22;;;;;;;26.20;2.70;;;16.60;49.40;;;;;;5008406;28;20196;-68
2023/05/16 08:15:47;;;;;;;25.87;2.30;;;16.30;48.10;;;;;;5003662;28;20680;-68
2023/05/16 08:18:14;;;;;;;26.37;2.33;;;16.40;48.80;;;;;;5009933;28;20621;-68
2023/05/16 08:20:40;;;;;;;26.77;2.90;;;16.70;48.30;;;;;;5015649;28;20203;-68
2023/05/16 08:23:06;;;;;;;28.00;2.63;;;16.90;47.70;;;;;;5029594;28;20415;-68
2023/05/16 08:25:32;;;;;;;27.40;2.30;;;16.70;47.10;;;;;;5031325;28;20522;-68
2023/05/16 08:27:58;;;;;;;29.10;1.93;;;16.60;47.50;;;;;;5031113;28;20498;-68
2023/05/16 08:30:24;;;;;;;29.53;2.37;;;16.70;49.20;;;;;;5019761;28;20238;-69
2023/05/16 08:32:50;;;;;;;30.10;2.73;;;16.80;48.80;;;;;;5016978;28;20326;-69
2023/05/16 08:35:15;;;;;;;33.03;3.10;;;17.10;46.60;;;;;;5031080;28;20498;-69
2023/05/16 08:37:41;;;;;;;29.50;2.10;;;17.00;46.20;;;;;;5031080;28;20192;-69
2023/05/16 08:40:09;;;;;;;30.90;2.27;;;17.10;46.70;;;;;;5027135;28;20222;-69
2023/05/16 08:42:36;;;;;;;19.50;2.07;;;17.10;46.60;;;;;;5026153;28;20234;-69
2023/05/16 08:45:02;;;;;;;29.00;2.30;;;17.20;45.90;;;;;;5012133;28;20443;-68
2023/05/16 08:47:30;;;;;;;27.53;1.77;;;16.90;44.70;;;;;;5014644;28;20470;-68
2023/05/16 08:49:57;;;;;;;29.73;2.20;;;16.50;45.80;;;;;;5014622;28;20450;-69
2023/05/16 08:52:28;;;;;;;29.80;2.10;;;16.50;45.90;;;;;;5019434;28;20474;-69
2023/05/16 08:54:56;;;;;;;29.67;2.30;;;16.50;45.80;;;;;;5020969;28;20411;-69
2023/05/16 08:57:22;;;;;;;29.40;2.10;;;16.60;45.50;;;;;;5014142;28;20479;-69
2023/05/16 08:59:48;;;;;;;29.47;1.77;;;16.70;45.40;;;;;;5014710;28;20419;-68
2023/05/16 09:02:14;;;;;;;16.27;1.83;;;16.90;44.70;;;;;;5012312;28;20447;-69
2023/05/16 09:04:42;;;;;;;16.13;2.20;;;16.90;43.90;;;;;;5022431;28;20841;-69
2023/05/16 09:07:07;;;;;;;28.30;1.60;;;16.70;43.50;;;;;;5029450;28;20957;-69
2023/05/16 09:09:33;;;;;;;29.77;1.80;;;16.60;43.90;;;;;;5034182;28;20430;-69
2023/05/16 09:11:59;;;;;;;29.90;1.60;;;16.70;45.00;;;;;;5032862;28;20258;-69
2023/05/16 09:14:24;;;;;;;31.30;2.20;;;16.80;44.70;;;;;;5013575;28;20250;-69
2023/05/16 09:17:06;;;;;;;5.13;1.70;;;16.60;44.00;;;;;;5024585;28;20468;-69
2023/05/16 09:19:37;;;;;;;29.03;1.87;;;16.80;42.90;;;;;;5025935;28;20192;-68
2023/05/16 09:22:03;;;;;;;30.23;2.77;;;16.80;42.90;;;;;;5034415;28;20406;-70
2023/05/16 09:24:29;;;;;;;30.13;1.83;;;16.90;43.10;;;;;;5033158;28;20412;-69
2023/05/16 09:26:55;;;;;;;29.30;1.70;;;16.90;42.30;;;;;;5028261;28;20284;-69
2023/05/16 09:29:21;;;;;;;31.73;2.10;;;16.80;43.10;;;;;;5023939;28;20539;-69
2023/05/16 09:31:48;;;;;;;29.70;1.53;;;16.90;43.50;;;;;;5034030;28;20450;-69
2023/05/16 09:34:14;;;;;;;27.70;2.03;;;17.10;42.80;;;;;;5033216;28;20894;-69
2023/05/16 09:36:40;;;;;;;28.30;2.43;;;17.00;43.00;;;;;;5031410;28;20458;-68
2023/05/16 09:39:06;;;;;;;29.30;2.23;;;16.90;45.80;;;;;;5024819;28;20267;-68
2023/05/16 09:41:33;;;;;;;27.60;1.60;;;16.90;43.10;;;;;;5025170;28;20891;-69
2023/05/16 09:44:03;;;;;;;28.50;2.10;;;17.00;44.20;;;;;;5032882;28;20888;-68
2023/05/16 09:46:29;;;;;;;32.57;2.60;;;17.00;43.00;;;;;;5033453;28;20518;-68
2023/05/16 09:48:55;;;;;;;27.67;1.47;;;16.90;43.20;;;;;;5020121;28;20538;-68
2023/05/16 09:51:21;;;;;;;29.80;1.80;;;16.80;44.40;;;;;;5022107;28;20185;-68
2023/05/16 09:53:47;;;;;;;30.60;2.50;;;16.80;46.10;;;;;;5032805;28;20412;-68
2023/05/16 09:56:14;;;;;;;28.70;1.67;;;16.90;46.50;;;;;;5024611;28;20470;-68
2023/05/16 09:58:42;;;;;;;30.07;2.17;;;17.00;44.90;;;;;;5024392;28;20517;-69
2023/05/16 10:01:08;;;;;;;32.27;2.23;;;17.00;44.60;;;;;;5033121;28;20413;-68
2023/05/16 10:03:35;;;;;;;27.90;1.87;;;17.00;44.10;;;;;;5032577;28;20420;-69
2023/05/16 10:06:02;;;;;;;28.60;2.10;;;16.30;44.60;;;;;;5029540;28;20453;-68
2023/05/16 10:08:31;;;;;;;28.10;2.00;;;16.50;46.60;;;;;;5007861;28;20451;-68
2023/05/16 10:10:57;;;;;;;27.90;1.70;;;16.70;45.10;;;;;;5018284;28;20832;-68
2023/05/16 10:13:27;;;;;;;28.10;2.00;;;16.50;45.50;;;;;;5024075;28;20445;-68
2023/05/16 10:15:55;;;;;;;29.10;2.13;;;16.70;45.70;;;;;;5026259;28;20667;-68
2023/05/16 10:18:21;;;;;;;26.43;2.47;;;16.80;45.90;;;;;;5020049;28;20477;-68
2023/05/16 10:20:51;;;;;;;20.00;2.00;;;16.80;46.50;;;;;;5024594;28;20425;-68
2023/05/16 10:23:18;;;;;;;18.00;1.60;;;16.80;46.10;;;;;;5031973;28;20926;-68
2023/05/16 10:25:46;;;;;;;18.27;2.00;;;16.90;45.10;;;;;;5032633;28;20948;-68
2023/05/16 10:28:13;;;;;;;18.17;1.50;;;16.80;46.50;;;;;;5024073;28;20442;-68
2023/05/16 10:30:44;;;;;;;13.37;1.97;;;16.80;45.20;;;;;;5021488;28;20442;-68
2023/05/16 10:33:14;;;;;;;14.57;1.40;;;16.70;44.50;;;;;;5024006;28;20413;-68
2023/05/16 10:35:40;;;;;;;16.43;2.10;;;16.80;46.10;;;;;;5032575;28;20522;-69
2023/05/16 10:38:08;;;;;;;16.20;2.00;;;16.80;45.10;;;;;;5032322;28;20454;-68
2023/05/16 10:40:36;;;;;;;16.67;2.03;;;16.80;46.00;;;;;;5030285;28;20825;-68
2023/05/16 10:43:05;;;;;;;17.43;1.53;;;16.80;45.30;;;;;;5021184;28;20443;-68
2023/05/16 10:45:31;;;;;;;21.50;2.17;;;16.80;45.90;;;;;;5024411;28;21002;-68
2023/05/16 10:48:05;;;;;;;22.40;1.80;;;16.80;45.70;;;;;;5032383;28;20418;-68
2023/05/16 10:50:38;;;;;;;23.27;2.27;;;16.70;44.90;;;;;;5032300;28;20653;-68
2023/05/16 10:53:20;;;;;;;22.07;1.80;;;16.80;45.90;;;;;;5014669;28;20442;-68
2023/05/16 10:56:04;;;;;;;21.73;1.87;;;16.90;45.30;;;;;;5012925;28;20449;-68
2023/05/16 10:58:35;;;;;;;22.27;1.70;;;17.00;45.60;;;;;;5010863;28;20463;-67
2023/05/16 11:01:19;;;;;;;9.23;1.50;;;16.90;44.80;;;;;;5009595;28;20459;-69
2023/05/16 11:04:11;;;;;;;26.60;3.20;;;17.00;44.80;;;;;;4999794;28;20431;-67
2023/05/16 11:06:39;;;;;;;22.83;2.03;;;16.90;44.80;;;;;;5043236;23;20511;-67
2023/05/16 11:09:12;;;;;;;26.90;2.73;;;16.90;44.40;;;;;;4992648;28;20495;-67
2023/05/16 11:11:45;;;;;;;27.40;2.37;;;16.80;45.60;;;;;;4991022;28;20523;-67
2023/05/16 11:14:20;;;;;;;26.47;2.23;;;17.00;43.90;;;;;;4988899;28;20468;-67
2023/05/16 11:17:01;;;;;;;28.77;1.97;;;16.90;44.30;;;;;;4989798;28;20448;-67
2023/05/16 11:19:48;;;;;;;27.70;2.67;;;16.90;45.90;;;;;;4988333;28;20536;-67
2023/05/16 11:22:20;;;;;;;26.37;1.80;;;16.90;44.40;;;;;;4991620;28;20424;-67
2023/05/16 11:24:52;;;;;;;27.63;3.00;;;16.90;45.10;;;;;;4992588;28;20435;-67
2023/05/16 11:27:22;;;;;;;25.97;1.70;;;17.20;46.20;;;;;;4998978;28;20489;-67
2023/05/16 11:29:48;;;;;;;19.00;2.37;;;17.00;45.30;;;;;;4990591;28;20438;-67
2023/05/16 11:32:17;;;;;;;26.83;1.83;;;16.70;46.00;;;;;;4991665;28;20405;-67
2023/05/16 11:34:44;;;;;;;26.67;2.70;;;16.70;48.10;;;;;;4985991;28;20197;-67
2023/05/16 11:37:10;;;;;;;26.33;1.67;;;16.90;45.80;;;;;;4984339;28;20468;-71
2023/05/16 11:39:36;;;;;;;30.40;2.77;;;17.00;46.70;;;;;;5002306;28;20451;-70
2023/05/16 11:42:02;;;;;;;28.93;2.60;;;17.00;46.50;;;;;;4991958;28;20844;-68
2023/05/16 11:44:28;;;;;;;29.13;2.30;;;16.80;45.90;;;;;;4986631;28;20158;-66
2023/05/16 11:46:53;;;;;;;28.90;2.27;;;16.90;45.90;;;;;;4988833;28;20540;-66
2023/05/16 11:49:19;;;;;;;13.80;1.77;;;17.00;45.60;;;;;;4990416;28;20197;-67
2023/05/16 11:51:45;;;;;;;27.50;2.40;;;16.90;44.80;;;;;;4991339;28;20178;-66
2023/05/16 11:54:11;;;;;;;27.40;1.97;;;17.20;49.20;;;;;;4989928;28;20236;-69
2023/05/16 11:56:40;;;;;;;28.70;1.97;;;16.10;46.80;;;;;;4986690;28;20288;-68
2023/05/16 11:59:06;;;;;;;29.80;2.10;;;15.90;50.00;;;;;;4988414;28;20444;-66
2023/05/16 12:01:38;;;;;;;28.10;1.90;;;16.30;48.80;;;;;;4990710;28;21054;-66
2023/05/16 12:04:11;;;;;;;29.47;2.33;;;16.70;49.10;;;;;;4990965;28;20926;-66
2023/05/16 12:06:37;;;;;;;19.40;2.60;;;17.00;48.20;;;;;;4988034;28;20508;-66
2023/05/16 12:09:09;;;;;;;10.00;2.23;;;16.90;45.90;;;;;;4992638;28;20452;-67
2023/05/16 12:11:38;;;;;;;17.57;1.83;;;16.70;47.20;;;;;;5000076;28;20413;-66
2023/05/16 12:14:06;;;;;;;16.67;1.70;;;16.90;46.50;;;;;;4990476;28;20503;-66
2023/05/16 12:16:32;;;;;;;17.37;1.73;;;16.90;46.20;;;;;;4990870;28;20463;-68
2023/05/16 12:19:00;;;;;;;18.27;2.00;;;16.80;45.60;;;;;;4995925;28;20479;-67
2023/05/16 12:21:26;;;;;;;15.30;2.30;;;16.70;46.30;;;;;;4998816;28;20938;-66
2023/05/16 12:23:56;;;;;;;15.23;1.70;;;16.60;46.70;;;;;;5001126;28;20421;-66
2023/05/16 12:26:29;;;;;;;14.67;1.57;;;16.60;46.50;;;;;;4975837;28;20213;-66
2023/05/16 12:29:04;;;;;;;9.37;1.50;;;15.90;49.30;;;;;;4995375;28;20483;-70
2023/05/16 12:31:30;;;;;;;13.30;1.83;;;15.00;54.00;;;;;;4976017;28;20502;-67
2023/05/16 12:33:57;;;;;;;13.90;1.90;;;14.50;58.10;;;;;;4994036;28;20479;-67
2023/05/16 12:36:23;;;;;;;13.27;1.77;;;14.40;59.20;;;;;;4995250;28;21001;-66
2023/05/16 12:38:50;;;;;;;12.30;1.70;;;14.60;57.30;;;;;;4994544;28;20468;-67